createdAt,value
2019-05-29T00:01:24.861Z,101886.59
2019-05-29T00:03:55.160Z,101886.97
2019-05-29T00:06:25.430Z,101896.94
2019-05-29T00:08:55.491Z,101899.91
2019-05-29T00:11:25.677Z,101901.98
2019-05-29T00:13:55.832Z,101903.64
2019-05-29T00:16:26.088Z,101908.36
2019-05-29T00:18:58.383Z,101909.11
2019-05-29T00:21:28.240Z,101913.40
2019-05-29T00:23:58.326Z,101914.14
2019-05-29T00:26:28.558Z,101912.39
2019-05-29T00:28:58.741Z,101916.68
2019-05-29T00:31:28.930Z,101919.22
2019-05-29T00:33:59.147Z,101915.16
2019-05-29T00:36:29.376Z,101920.75
2019-05-29T00:38:59.595Z,101916.33
2019-05-29T00:41:29.972Z,101911.91
2019-05-29T00:44:00.149Z,101909.23
2019-05-29T00:46:30.405Z,101913.95
2019-05-29T00:49:00.590Z,101913.50
2019-05-29T00:51:30.891Z,101917.36
2019-05-29T00:54:01.073Z,101916.42
2019-05-29T00:56:31.394Z,101919.89
2019-05-29T00:59:01.690Z,101924.18
2019-05-29T01:01:31.922Z,101927.67
2019-05-29T01:04:09.505Z,101938.48
2019-05-29T01:06:39.743Z,101928.41
2019-05-29T01:09:10.366Z,101937.46
2019-05-29T01:11:40.592Z,101939.13
2019-05-29T01:14:11.067Z,101939.45
2019-05-29T01:16:41.297Z,101944.16
2019-05-29T01:19:26.729Z,101946.68
2019-05-29T01:21:57.888Z,101948.35
2019-05-29T01:24:28.161Z,101944.75
2019-05-29T01:26:58.500Z,101949.94
2019-05-29T01:29:28.747Z,101953.80
2019-05-29T01:31:58.850Z,101954.59
2019-05-29T01:34:29.142Z,101953.66
2019-05-29T01:36:59.593Z,101951.90
2019-05-29T01:39:29.863Z,101955.27
2019-05-29T01:42:00.066Z,101962.58
2019-05-29T01:44:30.272Z,101960.76
2019-05-29T01:47:00.520Z,101961.09
2019-05-29T01:49:30.798Z,101963.64
2019-05-29T01:52:01.005Z,101964.95
2019-05-29T01:54:31.255Z,101956.25
2019-05-29T01:57:01.585Z,101971.90
2019-05-29T01:59:31.987Z,101967.50
2019-05-29T02:02:02.328Z,101965.68
2019-05-29T02:04:32.807Z,101970.02
2019-05-29T02:07:03.191Z,101962.13
2019-05-29T02:09:33.646Z,101969.08
2019-05-29T02:12:04.051Z,101966.83
2019-05-29T02:14:34.481Z,101969.38
2019-05-29T02:17:04.823Z,101969.72
2019-05-29T02:19:35.241Z,101962.58
2019-05-29T02:22:06.386Z,101966.98
2019-05-29T02:24:36.852Z,101970.32
2019-05-29T02:27:07.252Z,101979.88
2019-05-29T02:29:37.736Z,101973.56
2019-05-29T02:32:08.255Z,101987.18
2019-05-29T02:34:38.545Z,101990.58
2019-05-29T02:37:09.181Z,101993.06
2019-05-29T02:39:39.464Z,101998.64
2019-05-29T02:42:09.779Z,102004.25
2019-05-29T02:44:40.120Z,102002.92
2019-05-29T02:47:10.535Z,102006.31
2019-05-29T02:49:40.974Z,102009.66
2019-05-29T02:52:11.338Z,102008.38
2019-05-29T02:54:41.639Z,102009.23
2019-05-29T02:57:12.000Z,102009.52
2019-05-29T02:59:42.477Z,102008.22
2019-05-29T03:02:12.744Z,102008.38
2019-05-29T03:04:43.179Z,102009.03
2019-05-29T03:07:24.235Z,102006.13
2019-05-29T03:10:01.805Z,102006.77
2019-05-29T03:12:33.664Z,102014.39
2019-05-29T03:15:04.745Z,102008.14
2019-05-29T03:17:35.115Z,102004.50
2019-05-29T03:20:06.962Z,102011.78
2019-05-29T03:22:37.444Z,102015.23
2019-05-29T03:25:08.037Z,102014.36
2019-05-29T03:27:38.630Z,102011.27
2019-05-29T03:30:09.621Z,102029.06
2019-05-29T03:32:47.268Z,102025.97
2019-05-29T03:35:12.008Z,102028.12
2019-05-29T03:37:42.272Z,102025.06
2019-05-29T03:40:12.584Z,102028.97
2019-05-29T03:42:42.908Z,102039.86
2019-05-29T03:45:13.587Z,102033.34
2019-05-29T03:47:43.905Z,102025.36
2019-05-29T03:50:15.858Z,102043.86
2019-05-29T03:52:46.314Z,102049.66
2019-05-29T03:55:17.023Z,102047.99
2019-05-29T03:57:47.374Z,102053.79
2019-05-29T04:00:17.907Z,102060.40
2019-05-29T04:02:48.068Z,102063.23
2019-05-29T04:05:18.465Z,102066.41
2019-05-29T04:07:48.787Z,102067.51
2019-05-29T04:10:29.447Z,102069.41
2019-05-29T04:13:01.870Z,102069.14
2019-05-29T04:15:36.638Z,102072.45
2019-05-29T04:18:08.742Z,102084.86
2019-05-29T04:20:39.150Z,102079.84
2019-05-29T04:23:09.412Z,102088.73
2019-05-29T04:25:42.834Z,102091.55
2019-05-29T04:28:11.740Z,102097.43
2019-05-29T04:30:41.895Z,102097.15
2019-05-29T04:33:12.076Z,102100.41
2019-05-29T04:35:42.279Z,102101.55
2019-05-29T04:38:12.469Z,102110.86
2019-05-29T04:40:42.837Z,102115.55
2019-05-29T04:43:13.183Z,102108.78
2019-05-29T04:45:43.407Z,102116.02
2019-05-29T04:48:13.604Z,102114.50
2019-05-29T04:50:43.863Z,102116.50
2019-05-29T04:53:14.079Z,102117.67
2019-05-29T04:55:44.181Z,102118.86
2019-05-29T04:58:14.382Z,102116.16
2019-05-29T05:00:58.093Z,102120.00
2019-05-29T05:03:16.561Z,102122.94
2019-05-29T05:05:46.704Z,102132.44
2019-05-29T05:08:16.983Z,102144.53
2019-05-29T05:10:47.714Z,102151.31
2019-05-29T05:13:18.318Z,102152.91
2019-05-29T05:15:49.562Z,102161.95
2019-05-29T05:18:20.133Z,102155.69
2019-05-29T05:20:50.652Z,102164.70
2019-05-29T05:23:21.179Z,102167.11
2019-05-29T05:25:51.640Z,102169.98
2019-05-29T05:28:22.240Z,102164.91
2019-05-29T05:30:52.743Z,102170.86
2019-05-29T05:33:23.208Z,102171.54
2019-05-29T05:35:53.668Z,102175.23
2019-05-29T05:38:24.333Z,102174.62
2019-05-29T05:40:54.855Z,102175.73
2019-05-29T05:43:25.492Z,102176.84
2019-05-29T05:45:56.065Z,102179.27
2019-05-29T05:48:26.645Z,102172.92
2019-05-29T05:50:57.154Z,102184.17
2019-05-29T05:53:27.610Z,102189.75
2019-05-29T05:55:58.152Z,102186.97
2019-05-29T05:58:28.678Z,102198.24
2019-05-29T06:00:59.176Z,102193.25
2019-05-29T06:03:29.642Z,102195.81
2019-05-29T06:06:00.159Z,102198.75
2019-05-29T06:08:31.925Z,102206.03
2019-05-29T06:11:02.629Z,102200.63
2019-05-29T06:13:34.117Z,102204.42
2019-05-29T06:16:04.700Z,102212.67
2019-05-29T06:18:35.074Z,102204.17
2019-05-29T06:21:05.554Z,102206.59
2019-05-29T06:23:38.830Z,102216.44
2019-05-29T06:26:09.401Z,102221.38
2019-05-29T06:28:41.185Z,102228.40
2019-05-29T06:31:11.413Z,102230.19
2019-05-29T06:33:41.613Z,102235.12
2019-05-29T06:36:11.747Z,102223.02
2019-05-29T06:38:42.239Z,102221.47
2019-05-29T06:41:12.671Z,102230.84
2019-05-29T06:43:44.105Z,102238.48
2019-05-29T06:46:14.804Z,102227.88
2019-05-29T06:48:59.050Z,102226.59
2019-05-29T06:51:17.153Z,102232.75
2019-05-29T06:53:48.306Z,102232.24
2019-05-29T06:56:18.746Z,102243.13
2019-05-29T06:58:48.838Z,102242.17
2019-05-29T07:01:19.031Z,102250.52
2019-05-29T07:03:49.387Z,102253.64
2019-05-29T07:06:19.760Z,102255.80
2019-05-29T07:08:50.357Z,102254.08
2019-05-29T07:11:20.577Z,102250.66
2019-05-29T07:13:51.073Z,102256.08
2019-05-29T07:16:21.301Z,102257.90
2019-05-29T07:21:23.420Z,102251.36
2019-05-29T07:23:53.726Z,102254.92
2019-05-29T07:26:23.991Z,102258.45
2019-05-29T07:29:06.983Z,102265.94
2019-05-29T07:31:26.312Z,102257.55
2019-05-29T07:33:56.412Z,102264.98
2019-05-29T07:36:26.604Z,102263.23
2019-05-29T07:39:03.361Z,102265.04
2019-05-29T07:41:28.848Z,102265.48
2019-05-29T07:43:59.106Z,102261.99
2019-05-29T07:46:29.272Z,102268.62
2019-05-29T07:48:59.578Z,102271.28
2019-05-29T07:51:29.764Z,102270.38
2019-05-29T07:54:00.009Z,102275.21
2019-05-29T07:56:30.231Z,102269.91
2019-05-29T07:59:03.165Z,102268.93
2019-05-29T08:01:32.520Z,102270.96
2019-05-29T08:04:02.705Z,102267.71
2019-05-29T08:06:32.960Z,102274.73
2019-05-29T08:09:07.699Z,102272.08
2019-05-29T08:11:37.921Z,102266.42
2019-05-29T08:14:08.610Z,102268.73
2019-05-29T08:16:39.746Z,102269.09
2019-05-29T08:19:10.084Z,102274.70
2019-05-29T08:21:41.029Z,102275.96
2019-05-29T08:24:12.430Z,102276.91
2019-05-29T08:26:42.955Z,102276.12
2019-05-29T08:29:13.257Z,102283.50
2019-05-29T08:31:44.650Z,102276.59
2019-05-29T08:34:15.022Z,102277.03
2019-05-29T08:36:59.951Z,102277.09
2019-05-29T08:39:33.985Z,102280.63
2019-05-29T08:42:19.318Z,102280.16
2019-05-29T08:44:21.273Z,102277.50
2019-05-29T08:47:09.025Z,102282.87
2019-05-29T08:49:23.455Z,102275.72
2019-05-29T08:52:08.238Z,102280.95
2019-05-29T08:54:25.480Z,102280.52
2019-05-29T08:56:56.919Z,102278.48
2019-05-29T08:59:27.350Z,102280.27
2019-05-29T09:01:57.531Z,102279.39
2019-05-29T09:04:27.828Z,102277.11
2019-05-29T09:06:58.255Z,102280.86
2019-05-29T09:09:28.704Z,102280.38
2019-05-29T09:11:59.018Z,102281.25
2019-05-29T09:14:29.232Z,102277.47
2019-05-29T09:16:59.485Z,102277.34
2019-05-29T09:19:29.669Z,102283.38
2019-05-29T09:21:59.852Z,102283.31
2019-05-29T09:24:30.079Z,102277.89
2019-05-29T09:27:00.455Z,102284.37
2019-05-29T09:29:30.742Z,102280.56
2019-05-29T09:32:01.003Z,102278.75
2019-05-29T09:35:07.854Z,102275.14
2019-05-29T09:37:38.315Z,102277.23
2019-05-29T09:40:17.083Z,102275.92
2019-05-29T09:42:47.439Z,102274.17
2019-05-29T09:45:17.949Z,102278.42
2019-05-29T09:47:48.434Z,102284.36
2019-05-29T09:50:20.839Z,102280.67
2019-05-29T09:52:50.800Z,102278.12
2019-05-29T09:55:21.661Z,102283.19
2019-05-29T09:57:52.427Z,102274.32
2019-05-29T10:00:25.349Z,102280.69
2019-05-29T10:02:55.686Z,102285.58
2019-05-29T10:05:25.939Z,102287.29
2019-05-29T10:07:56.779Z,102283.84
2019-05-29T10:10:28.237Z,102288.67
2019-05-29T10:12:58.383Z,102287.94
2019-05-29T10:15:28.685Z,102280.23
2019-05-29T10:17:58.852Z,102274.05
2019-05-29T10:20:29.088Z,102275.88
2019-05-29T10:22:59.355Z,102270.66
2019-05-29T10:25:29.623Z,102280.48
2019-05-29T10:28:00.023Z,102276.23
2019-05-29T10:30:30.751Z,102272.38
2019-05-29T10:33:01.163Z,102275.77
2019-05-29T10:35:31.380Z,102271.02
2019-05-29T10:38:01.642Z,102268.73
2019-05-29T10:40:31.959Z,102277.60
2019-05-29T10:43:02.151Z,102278.18
2019-05-29T10:45:33.191Z,102268.47
2019-05-29T10:48:03.726Z,102272.83
2019-05-29T10:50:34.042Z,102272.63
2019-05-29T10:53:04.369Z,102265.27
2019-05-29T10:55:34.758Z,102266.39
2019-05-29T10:58:05.012Z,102264.77
2019-05-29T11:00:41.264Z,102265.31
2019-05-29T11:03:11.585Z,102267.64
2019-05-29T11:05:41.877Z,102258.45
2019-05-29T11:08:12.034Z,102262.22
2019-05-29T11:10:42.263Z,102256.95
2019-05-29T11:13:12.564Z,102254.62
2019-05-29T11:15:42.990Z,102260.34
2019-05-29T11:18:13.075Z,102260.49
2019-05-29T11:20:43.402Z,102250.80
2019-05-29T11:23:13.732Z,102249.59
2019-05-29T11:25:44.291Z,102256.14
2019-05-29T11:28:14.633Z,102247.56
2019-05-29T11:30:44.981Z,102247.41
2019-05-29T11:33:15.262Z,102240.94
2019-05-29T11:35:57.779Z,102243.98
2019-05-29T11:38:17.705Z,102241.16
2019-05-29T11:40:48.187Z,102241.39
2019-05-29T11:43:18.530Z,102237.40
2019-05-29T11:45:48.869Z,102242.69
2019-05-29T11:48:19.127Z,102247.75
2019-05-29T11:50:49.998Z,102242.23
2019-05-29T11:53:20.240Z,102237.80
2019-05-29T11:55:52.499Z,102237.80
2019-05-29T11:58:31.269Z,102238.16
2019-05-29T12:00:55.071Z,102243.83
2019-05-29T12:03:25.598Z,102239.41
2019-05-29T12:05:57.489Z,102228.11
2019-05-29T12:08:27.930Z,102240.49
2019-05-29T12:10:59.383Z,102242.75
2019-05-29T12:13:29.734Z,102236.84
2019-05-29T12:16:00.101Z,102237.80
2019-05-29T12:18:30.392Z,102238.52
2019-05-29T12:21:01.741Z,102239.06
2019-05-29T12:23:32.544Z,102236.06
2019-05-29T12:26:21.147Z,102226.48
2019-05-29T12:28:34.692Z,102234.12
2019-05-29T12:31:05.057Z,102227.17
2019-05-29T12:33:35.411Z,102229.64
2019-05-29T12:36:07.080Z,102234.09
2019-05-29T12:38:37.549Z,102226.74
2019-05-29T12:41:07.888Z,102224.61
2019-05-29T12:43:38.231Z,102226.41
2019-05-29T12:46:08.693Z,102222.96
2019-05-29T12:48:38.917Z,102212.77
2019-05-29T12:51:09.356Z,102208.83
2019-05-29T12:53:39.635Z,102213.72
2019-05-29T12:56:09.949Z,102218.50
2019-05-29T12:58:40.225Z,102221.59
2019-05-29T13:01:10.617Z,102212.72
2019-05-29T13:03:44.831Z,102215.52
2019-05-29T13:06:12.931Z,102215.33
2019-05-29T13:08:43.189Z,102209.70
2019-05-29T13:11:13.463Z,102210.79
2019-05-29T13:13:43.876Z,102207.32
2019-05-29T13:16:14.100Z,102197.78
2019-05-29T13:18:44.335Z,102189.02
2019-05-29T13:21:14.713Z,102196.56
2019-05-29T13:23:45.897Z,102198.52
2019-05-29T13:26:16.254Z,102198.88
2019-05-29T13:28:46.576Z,102190.99
2019-05-29T13:31:16.892Z,102188.12
2019-05-29T13:33:47.231Z,102184.63
2019-05-29T13:36:17.571Z,102183.79
2019-05-29T13:38:47.741Z,102187.11
2019-05-29T13:41:17.927Z,102186.00
2019-05-29T13:43:48.344Z,102184.03
2019-05-29T13:46:18.562Z,102172.45
2019-05-29T13:48:48.878Z,102172.27
2019-05-29T13:51:19.162Z,102170.09
2019-05-29T13:54:02.507Z,102174.89
2019-05-29T13:56:24.216Z,102181.38
2019-05-29T13:58:53.287Z,102175.50
2019-05-29T14:01:23.470Z,102171.46
2019-05-29T14:03:53.746Z,102167.48
2019-05-29T14:06:24.129Z,102167.67
2019-05-29T14:08:54.437Z,102164.92
2019-05-29T14:11:24.601Z,102168.55
2019-05-29T14:13:54.787Z,102171.07
2019-05-29T14:16:25.046Z,102167.25
2019-05-29T14:18:55.323Z,102165.69
2019-05-29T14:21:25.588Z,102166.44
2019-05-29T14:23:55.991Z,102162.84
2019-05-29T14:26:26.343Z,102162.28
2019-05-29T14:28:56.648Z,102165.61
2019-05-29T14:31:27.332Z,102157.83
2019-05-29T14:33:57.456Z,102160.04
2019-05-29T14:36:27.755Z,102150.33
2019-05-29T14:38:58.007Z,102155.59
2019-05-29T14:41:28.313Z,102143.92
2019-05-29T14:43:58.570Z,102151.28
2019-05-29T14:46:28.963Z,102145.81
2019-05-29T14:49:04.345Z,102136.90
2019-05-29T14:51:34.496Z,102139.86
2019-05-29T14:54:04.838Z,102146.68
2019-05-29T14:56:35.089Z,102149.75
2019-05-29T14:59:07.113Z,102143.01
2019-05-29T15:01:39.686Z,102142.72
2019-05-29T15:04:10.015Z,102138.33
2019-05-29T15:06:40.339Z,102132.03
2019-05-29T15:09:11.710Z,102129.60
2019-05-29T15:11:42.022Z,102122.70
2019-05-29T15:14:12.390Z,102129.95
2019-05-29T15:16:43.402Z,102126.02
2019-05-29T15:19:15.109Z,102130.20
2019-05-29T15:21:45.854Z,102127.31
2019-05-29T15:24:16.287Z,102112.63
2019-05-29T15:26:46.831Z,102114.96
2019-05-29T15:29:18.116Z,102112.59
2019-05-29T15:31:48.584Z,102116.58
2019-05-29T15:34:20.115Z,102111.49
2019-05-29T15:36:50.389Z,102101.64
2019-05-29T15:39:20.762Z,102101.37
2019-05-29T15:41:50.840Z,102097.70
2019-05-29T15:44:21.159Z,102100.05
2019-05-29T15:46:51.489Z,102102.52
2019-05-29T15:49:21.708Z,102099.89
2019-05-29T15:51:52.157Z,102092.48
2019-05-29T15:54:22.385Z,102100.67
2019-05-29T15:56:52.699Z,102098.42
2019-05-29T15:59:22.962Z,102094.50
2019-05-29T16:01:53.224Z,102100.56
2019-05-29T16:04:23.937Z,102096.83
2019-05-29T16:06:55.112Z,102086.37
2019-05-29T16:09:26.080Z,102087.42
2019-05-29T16:11:56.756Z,102090.69
2019-05-29T16:14:27.520Z,102088.59
2019-05-29T16:16:58.212Z,102080.28
2019-05-29T16:19:29.030Z,102080.09
2019-05-29T16:21:59.437Z,102071.12
2019-05-29T16:24:30.031Z,102073.66
2019-05-29T16:27:08.834Z,102071.08
2019-05-29T16:29:32.844Z,102066.47
2019-05-29T16:32:03.578Z,102067.58
2019-05-29T16:34:34.196Z,102068.73
2019-05-29T16:37:05.741Z,102072.59
2019-05-29T16:39:36.482Z,102064.52
2019-05-29T16:42:07.320Z,102068.55
2019-05-29T16:44:37.847Z,102073.53
2019-05-29T16:47:08.450Z,102068.82
2019-05-29T16:49:39.008Z,102065.30
2019-05-29T16:52:09.707Z,102072.45
2019-05-29T16:54:40.379Z,102063.88
2019-05-29T16:57:11.009Z,102076.06
2019-05-29T17:02:25.509Z,102068.67
2019-05-29T17:04:58.260Z,102069.42
2019-05-29T17:07:28.512Z,102067.64
2019-05-29T17:09:59.049Z,102060.58
2019-05-29T17:12:29.537Z,102070.48
2019-05-29T17:14:59.970Z,102063.97
2019-05-29T17:17:30.757Z,102062.48
2019-05-29T17:20:01.345Z,102074.77
2019-05-29T17:22:31.740Z,102068.94
2019-05-29T17:25:02.347Z,102064.64
2019-05-29T17:27:33.052Z,102072.05
2019-05-29T17:30:03.865Z,102069.41
2019-05-29T17:32:34.388Z,102064.42
2019-05-29T17:35:05.092Z,102071.81
2019-05-29T17:37:35.729Z,102063.76
2019-05-29T17:40:07.867Z,102070.68
2019-05-29T17:42:40.602Z,102070.26
2019-05-29T17:45:12.415Z,102062.38
2019-05-29T17:47:43.703Z,102067.14
2019-05-29T17:50:18.453Z,102068.09
2019-05-29T17:52:47.729Z,102070.45
2019-05-29T17:55:21.382Z,102073.05
2019-05-29T17:57:50.971Z,102074.63
2019-05-29T18:00:22.550Z,102067.65
2019-05-29T18:02:53.421Z,102064.34
2019-05-29T18:05:25.005Z,102057.06
2019-05-29T18:07:55.535Z,102061.70
2019-05-29T18:10:27.201Z,102062.22
2019-05-29T18:12:57.799Z,102064.64
2019-05-29T18:15:28.438Z,102063.03
2019-05-29T18:17:59.299Z,102060.24
2019-05-29T18:20:30.158Z,102054.53
2019-05-29T18:23:01.055Z,102056.53
2019-05-29T18:25:31.819Z,102058.19
2019-05-29T18:28:02.621Z,102061.94
2019-05-29T18:30:33.371Z,102062.86
2019-05-29T18:33:04.178Z,102057.87
2019-05-29T18:35:34.826Z,102050.53
2019-05-29T18:38:05.349Z,102051.81
2019-05-29T18:40:36.055Z,102049.73
2019-05-29T18:43:07.015Z,102056.62
2019-05-29T18:45:37.712Z,102051.20
2019-05-29T18:49:02.870Z,102047.13
2019-05-29T18:51:33.746Z,102041.08
2019-05-29T18:54:05.099Z,102039.44
2019-05-29T18:56:36.112Z,102041.77
2019-05-29T18:59:07.402Z,102039.39
2019-05-29T19:01:38.162Z,102035.82
2019-05-29T19:04:08.801Z,102031.06
2019-05-29T19:06:40.709Z,102035.05
2019-05-29T19:09:11.567Z,102046.44
2019-05-29T19:11:42.340Z,102046.87
2019-05-29T19:14:14.379Z,102051.61
2019-05-29T19:16:45.214Z,102044.55
2019-05-29T19:19:16.423Z,102046.31
2019-05-29T19:21:48.045Z,102049.33
2019-05-29T19:24:18.857Z,102049.00
2019-05-29T19:26:49.609Z,102051.38
2019-05-29T19:29:20.188Z,102051.95
2019-05-29T19:31:51.960Z,102053.24
2019-05-29T19:34:23.261Z,102058.03
2019-05-29T19:36:53.930Z,102051.34
2019-05-29T19:39:25.786Z,102054.29
2019-05-29T19:41:56.648Z,102052.45
2019-05-29T19:44:28.364Z,102063.48
2019-05-29T19:46:59.161Z,102059.80
2019-05-29T19:49:30.810Z,102056.55
2019-05-29T19:52:01.584Z,102061.23
2019-05-29T19:54:33.569Z,102062.36
2019-05-29T19:57:04.395Z,102063.02
2019-05-29T19:59:36.186Z,102068.52
2019-05-29T20:02:07.214Z,102075.78
2019-05-29T20:04:37.779Z,102075.00
2019-05-29T20:07:08.352Z,102073.82
2019-05-29T20:09:39.060Z,102074.42
2019-05-29T20:12:09.717Z,102083.80
2019-05-29T20:14:40.280Z,102079.50
2019-05-29T20:17:10.825Z,102083.56
2019-05-29T20:19:41.402Z,102084.80
2019-05-29T20:22:12.407Z,102083.22
2019-05-29T20:24:42.915Z,102083.29
2019-05-29T20:27:13.767Z,102075.86
2019-05-29T20:29:44.243Z,102080.73
2019-05-29T20:32:14.955Z,102082.58
2019-05-29T20:34:45.658Z,102073.36
2019-05-29T20:37:16.214Z,102073.39
2019-05-29T20:39:46.709Z,102074.31
2019-05-29T20:42:17.398Z,102078.73
2019-05-29T20:47:16.449Z,102064.67
2019-05-29T20:49:47.687Z,102065.59
2019-05-29T20:52:23.594Z,102068.61
2019-05-29T20:54:58.156Z,102055.44
2019-05-29T20:57:26.247Z,102051.06
2019-05-29T20:59:56.860Z,102050.21
2019-05-29T21:02:27.297Z,102047.16
2019-05-29T21:04:58.147Z,102055.55
2019-05-29T21:07:29.351Z,102044.98
2019-05-29T21:10:00.146Z,102051.13
2019-05-29T21:12:30.734Z,102042.78
2019-05-29T21:15:01.474Z,102050.27
2019-05-29T21:17:32.062Z,102054.26
2019-05-29T21:20:03.039Z,102044.98
2019-05-29T21:22:34.470Z,102059.97
2019-05-29T21:25:09.552Z,102056.00
2019-05-29T21:27:41.962Z,102052.92
2019-05-29T21:30:11.721Z,102057.34
2019-05-29T21:32:42.221Z,102052.90
2019-05-29T21:35:12.915Z,102054.20
2019-05-29T21:37:44.398Z,102051.11
2019-05-29T21:40:15.505Z,102051.08
2019-05-29T21:42:46.886Z,102047.56
2019-05-29T21:45:17.773Z,102044.92
2019-05-29T21:47:48.015Z,102045.34
2019-05-29T21:50:18.470Z,102041.38
2019-05-29T21:52:48.699Z,102036.08
2019-05-29T21:55:19.218Z,102034.75
2019-05-29T21:57:50.339Z,102033.43
2019-05-29T22:00:48.610Z,102030.33
2019-05-29T22:03:19.089Z,102029.02
2019-05-29T22:05:49.369Z,102032.11
2019-05-29T22:08:19.763Z,102030.31
2019-05-29T22:10:51.290Z,102032.06
2019-05-29T22:13:21.864Z,102026.31
2019-05-29T22:15:52.796Z,102027.64
2019-05-29T22:18:23.217Z,102024.09
2019-05-29T22:20:53.524Z,102021.90
2019-05-29T22:23:25.734Z,102023.64
2019-05-29T22:25:57.321Z,102018.35
2019-05-29T22:28:27.706Z,102021.88
2019-05-29T22:30:57.995Z,102016.58
2019-05-29T22:33:28.186Z,102014.34
2019-05-29T22:35:59.495Z,102008.63
2019-05-29T22:38:29.956Z,102009.95
2019-05-29T22:41:01.718Z,102006.44
2019-05-29T22:43:32.065Z,102007.73
2019-05-29T22:46:02.395Z,102007.76
2019-05-29T22:51:09.788Z,102009.47
2019-05-29T22:53:40.072Z,101999.81
2019-05-29T22:56:10.245Z,101995.84
2019-05-29T22:58:40.590Z,101996.74
2019-05-29T23:01:10.839Z,101995.87
2019-05-29T23:03:41.155Z,102004.27
2019-05-29T23:06:11.442Z,101990.15
2019-05-29T23:08:41.752Z,102002.45
2019-05-29T23:11:12.122Z,101991.02
2019-05-29T23:13:42.480Z,101999.86
2019-05-29T23:16:12.875Z,101992.83
2019-05-29T23:18:43.442Z,101976.94
2019-05-29T23:21:13.941Z,101986.20
2019-05-29T23:23:44.417Z,101976.52
2019-05-29T23:26:14.550Z,101970.34
2019-05-29T23:28:44.754Z,101962.85
2019-05-29T23:31:14.887Z,101959.78
2019-05-29T23:33:45.055Z,101965.98
2019-05-29T23:36:15.482Z,101969.05
2019-05-29T23:38:45.681Z,101973.47
2019-05-29T23:41:16.023Z,101979.66
2019-05-29T23:43:46.102Z,101981.86
2019-05-29T23:46:16.337Z,101984.95
2019-05-29T23:48:46.743Z,101984.95
2019-05-29T23:51:17.239Z,101984.53
2019-05-29T23:53:47.570Z,101984.07
2019-05-29T23:56:17.843Z,101977.04
2019-05-29T23:58:48.180Z,101983.20
